createdAt,value
2017-09-24T00:00:07.644Z,30.50
2017-09-24T00:02:35.085Z,31.62
2017-09-24T00:05:02.571Z,30.02
2017-09-24T00:07:30.024Z,30.35
2017-09-24T00:09:57.486Z,31.62
2017-09-24T00:12:24.935Z,28.27
2017-09-24T00:14:52.414Z,30.52
2017-09-24T00:17:19.866Z,29.90
2017-09-24T00:19:47.349Z,30.17
2017-09-24T00:22:14.802Z,29.30
2017-09-24T00:24:42.266Z,29.02
2017-09-24T00:27:09.714Z,28.75
2017-09-24T00:29:37.173Z,29.65
2017-09-24T00:32:05.393Z,28.12
2017-09-24T00:34:32.855Z,30.15
2017-09-24T00:37:00.308Z,29.12
2017-09-24T00:39:27.755Z,31.20
2017-09-24T00:41:55.215Z,27.92
2017-09-24T00:44:22.666Z,29.77
2017-09-24T00:46:50.120Z,32.60
2017-09-24T00:49:17.581Z,31.08
2017-09-24T00:51:45.037Z,32.15
2017-09-24T00:54:12.502Z,31.70
2017-09-24T00:56:39.974Z,32.22
2017-09-24T00:59:07.421Z,30.73
2017-09-24T01:01:34.882Z,30.23
2017-09-24T01:04:02.339Z,33.20
2017-09-24T01:06:29.790Z,31.25
2017-09-24T01:08:57.251Z,32.85
2017-09-24T01:11:24.701Z,30.70
2017-09-24T01:13:52.151Z,31.62
2017-09-24T01:16:20.365Z,29.48
2017-09-24T01:18:47.818Z,27.05
2017-09-24T01:21:15.270Z,27.98
2017-09-24T01:23:42.713Z,30.23
2017-09-24T01:26:10.486Z,30.05
2017-09-24T01:28:37.942Z,29.27
2017-09-24T01:31:05.400Z,29.80
2017-09-24T01:33:32.869Z,30.52
2017-09-24T01:36:00.324Z,31.58
2017-09-24T01:38:27.767Z,28.85
2017-09-24T01:40:55.221Z,28.45
2017-09-24T01:43:22.691Z,31.30
2017-09-24T01:45:50.142Z,29.65
2017-09-24T01:48:17.601Z,30.52
2017-09-24T01:50:45.047Z,29.40
2017-09-24T01:53:12.504Z,28.38
2017-09-24T01:55:39.955Z,28.55
2017-09-24T01:58:07.411Z,28.27
2017-09-24T02:00:34.870Z,30.23
2017-09-24T02:03:02.326Z,29.27
2017-09-24T02:05:29.778Z,30.37
2017-09-24T02:07:57.242Z,29.63
2017-09-24T02:10:24.691Z,29.37
2017-09-24T02:12:52.146Z,28.27
2017-09-24T02:15:19.594Z,29.25
2017-09-24T02:17:47.046Z,30.85
2017-09-24T02:20:14.503Z,32.95
2017-09-24T02:22:41.950Z,30.12
2017-09-24T02:25:09.410Z,30.30
2017-09-24T02:27:36.918Z,31.60
2017-09-24T02:30:04.354Z,28.30
2017-09-24T02:32:31.806Z,27.37
2017-09-24T02:34:59.268Z,28.87
2017-09-24T02:37:26.719Z,31.10
2017-09-24T02:39:54.172Z,29.83
2017-09-24T02:42:21.646Z,30.70
2017-09-24T02:44:49.098Z,30.92
2017-09-24T02:47:16.550Z,28.95
2017-09-24T02:49:44.002Z,31.42
2017-09-24T02:52:11.458Z,30.88
2017-09-24T02:54:38.908Z,31.90
2017-09-24T02:57:06.374Z,28.35
2017-09-24T02:59:33.831Z,29.65
2017-09-24T03:02:01.299Z,28.15
2017-09-24T03:04:28.743Z,30.75
2017-09-24T03:06:56.210Z,29.98
2017-09-24T03:09:23.662Z,31.27
2017-09-24T03:11:51.114Z,29.75
2017-09-24T03:14:18.573Z,30.00
2017-09-24T03:16:46.048Z,33.22
2017-09-24T03:19:13.523Z,30.60
2017-09-24T03:21:41.754Z,32.75
2017-09-24T03:24:09.214Z,34.38
2017-09-24T03:26:36.703Z,34.28
2017-09-24T03:29:04.941Z,33.75
2017-09-24T03:31:32.414Z,33.53
2017-09-24T03:33:59.885Z,33.92
2017-09-24T03:36:27.359Z,36.75
2017-09-24T03:38:54.837Z,34.50
2017-09-24T03:41:22.287Z,31.92
2017-09-24T03:43:49.738Z,35.85
2017-09-24T03:46:17.185Z,37.10
2017-09-24T03:48:45.405Z,36.72
2017-09-24T03:51:12.865Z,34.38
2017-09-24T03:53:40.325Z,34.60
2017-09-24T03:56:07.785Z,33.90
2017-09-24T03:58:35.250Z,38.97
2017-09-24T04:01:02.742Z,37.17
2017-09-24T04:03:30.980Z,35.90
2017-09-24T04:05:58.475Z,37.70
2017-09-24T04:08:25.929Z,35.05
2017-09-24T04:10:53.406Z,35.95
2017-09-24T04:13:20.986Z,35.25
2017-09-24T04:15:48.452Z,35.10
2017-09-24T04:18:15.945Z,35.25
2017-09-24T04:20:43.413Z,33.47
2017-09-24T04:23:10.875Z,32.15
2017-09-24T04:25:39.120Z,35.35
2017-09-24T04:28:06.569Z,35.42
2017-09-24T04:30:34.011Z,33.65
2017-09-24T04:33:01.478Z,35.17
2017-09-24T04:35:28.979Z,36.05
2017-09-24T04:37:57.210Z,33.58
2017-09-24T04:40:24.688Z,35.22
2017-09-24T04:42:52.162Z,37.20
2017-09-24T04:45:20.390Z,33.92
2017-09-24T04:47:47.861Z,38.40
2017-09-24T04:50:15.314Z,36.38
2017-09-24T04:52:42.787Z,32.42
2017-09-24T04:55:10.238Z,32.40
2017-09-24T04:57:37.693Z,35.40
2017-09-24T05:00:05.173Z,35.47
2017-09-24T05:02:32.630Z,33.97
2017-09-24T05:05:00.100Z,34.28
2017-09-24T05:07:28.369Z,35.28
2017-09-24T05:09:56.201Z,32.70
2017-09-24T05:12:23.673Z,36.20
2017-09-24T05:14:51.156Z,31.67
2017-09-24T05:17:18.627Z,33.78
2017-09-24T05:19:46.078Z,30.73
2017-09-24T05:22:14.298Z,32.30
2017-09-24T05:24:41.749Z,32.15
2017-09-24T05:27:09.580Z,31.73
2017-09-24T05:29:37.031Z,29.77
2017-09-24T05:32:04.501Z,31.05
2017-09-24T05:34:31.955Z,29.73
2017-09-24T05:36:59.414Z,31.52
2017-09-24T05:39:26.938Z,30.12
2017-09-24T05:41:54.395Z,28.42
2017-09-24T05:44:21.861Z,30.05
2017-09-24T05:46:50.095Z,30.25
2017-09-24T05:49:17.603Z,30.42
2017-09-24T05:51:45.071Z,31.40
2017-09-24T05:54:12.526Z,31.37
2017-09-24T05:56:39.986Z,28.67
2017-09-24T05:59:07.450Z,28.50
2017-09-24T06:01:34.902Z,32.55
2017-09-24T06:04:02.445Z,28.80
2017-09-24T06:06:30.502Z,30.15
2017-09-24T06:08:57.969Z,27.23
2017-09-24T06:11:25.448Z,28.20
2017-09-24T06:13:52.912Z,30.45
2017-09-24T06:16:20.814Z,32.40
2017-09-24T06:18:48.277Z,27.80
2017-09-24T06:21:20.451Z,29.75
2017-09-24T06:23:47.936Z,26.83
2017-09-24T06:26:15.403Z,27.70
2017-09-24T06:28:42.868Z,26.50
2017-09-24T06:31:10.311Z,25.10
2017-09-24T06:33:37.765Z,24.92
2017-09-24T06:36:05.226Z,26.70
2017-09-24T06:38:32.763Z,27.13
2017-09-24T06:41:00.231Z,30.27
2017-09-24T06:43:28.459Z,26.35
2017-09-24T06:45:56.319Z,29.73
2017-09-24T06:48:36.272Z,27.73
2017-09-24T06:51:03.770Z,25.27
2017-09-24T06:53:31.230Z,24.25
2017-09-24T06:55:59.707Z,24.27
2017-09-24T06:58:27.966Z,26.92
2017-09-24T07:00:55.418Z,23.73
2017-09-24T07:03:22.924Z,24.15
2017-09-24T07:05:50.377Z,24.77
2017-09-24T07:08:17.887Z,24.92
2017-09-24T07:10:45.350Z,24.30
2017-09-24T07:13:12.835Z,25.12
2017-09-24T07:15:41.062Z,22.50
2017-09-24T07:18:08.538Z,22.92
2017-09-24T07:20:36.042Z,22.92
2017-09-24T07:23:03.494Z,21.70
2017-09-24T07:25:30.942Z,22.25
2017-09-24T07:27:59.210Z,22.48
2017-09-24T07:30:27.444Z,21.73
2017-09-24T07:32:55.094Z,22.90
2017-09-24T07:35:23.270Z,21.70
2017-09-24T07:37:50.743Z,19.77
2017-09-24T07:40:18.235Z,19.73
2017-09-24T07:42:45.711Z,20.10
2017-09-24T07:45:13.166Z,20.27
2017-09-24T07:47:40.618Z,20.25
2017-09-24T07:50:08.091Z,19.77
2017-09-24T07:52:35.577Z,18.77
2017-09-24T07:55:03.042Z,19.65
2017-09-24T07:57:30.504Z,18.67
2017-09-24T07:59:57.993Z,16.50
2017-09-24T08:02:26.232Z,18.48
2017-09-24T08:04:53.730Z,16.05
2017-09-24T08:07:21.999Z,16.62
2017-09-24T08:09:50.279Z,17.95
2017-09-24T08:12:17.747Z,17.55
2017-09-24T08:14:45.832Z,18.60
2017-09-24T08:17:13.288Z,17.73
2017-09-24T08:19:40.776Z,18.58
2017-09-24T08:22:08.250Z,17.65
2017-09-24T08:24:35.799Z,17.30
2017-09-24T08:27:03.298Z,16.73
2017-09-24T08:29:30.763Z,18.15
2017-09-24T08:31:58.218Z,15.50
2017-09-24T08:34:25.782Z,16.33
2017-09-24T08:36:53.275Z,16.77
2017-09-24T08:39:20.742Z,16.67
2017-09-24T08:41:48.251Z,17.58
2017-09-24T08:44:15.714Z,16.65
2017-09-24T08:46:43.204Z,16.62
2017-09-24T08:49:10.776Z,17.80
2017-09-24T08:51:38.254Z,18.40
2017-09-24T08:54:05.747Z,18.60
2017-09-24T08:56:33.286Z,18.98
2017-09-24T08:59:01.563Z,17.27
2017-09-24T09:01:29.098Z,16.87
2017-09-24T09:03:56.582Z,18.20
2017-09-24T09:06:24.887Z,16.62
2017-09-24T09:08:52.386Z,18.12
2017-09-24T09:11:19.892Z,17.20
2017-09-24T09:13:47.441Z,16.62
2017-09-24T09:16:14.971Z,15.95
2017-09-24T09:18:42.438Z,17.90
2017-09-24T09:21:10.691Z,18.05
2017-09-24T09:23:38.174Z,20.20
2017-09-24T09:26:05.662Z,18.08
2017-09-24T09:28:33.150Z,18.52
2017-09-24T09:31:00.629Z,17.52
2017-09-24T09:33:28.104Z,17.92
2017-09-24T09:35:56.369Z,18.12
2017-09-24T09:38:25.030Z,18.52
2017-09-24T09:40:52.536Z,17.37
2017-09-24T09:43:31.674Z,18.55
2017-09-24T09:46:00.132Z,18.60
2017-09-24T09:48:27.593Z,19.42
2017-09-24T09:50:55.848Z,19.42
2017-09-24T09:53:23.309Z,17.12
2017-09-24T09:55:50.793Z,18.77
2017-09-24T09:58:18.266Z,19.58
2017-09-24T10:00:45.799Z,20.58
2017-09-24T10:03:14.025Z,21.45
2017-09-24T10:05:41.491Z,20.45
2017-09-24T10:08:21.635Z,20.95
2017-09-24T10:10:49.101Z,20.40
2017-09-24T10:13:16.549Z,19.67
2017-09-24T10:15:44.031Z,19.15
2017-09-24T10:18:11.502Z,19.67
2017-09-24T10:20:39.754Z,19.45
2017-09-24T10:23:07.230Z,20.77
2017-09-24T10:25:34.718Z,18.77
2017-09-24T10:28:02.196Z,19.67
2017-09-24T10:30:41.355Z,19.17
2017-09-24T10:33:08.826Z,19.52
2017-09-24T10:35:36.517Z,19.02
2017-09-24T10:38:03.975Z,18.73
2017-09-24T10:40:31.491Z,20.05
2017-09-24T10:42:58.987Z,19.73
2017-09-24T10:45:26.466Z,22.02
2017-09-24T10:47:53.957Z,17.77
2017-09-24T10:50:21.404Z,17.92
2017-09-24T10:52:48.873Z,19.98
2017-09-24T10:55:16.354Z,16.80
2017-09-24T10:57:43.834Z,18.25
2017-09-24T11:00:11.464Z,17.75
2017-09-24T11:02:39.014Z,19.12
2017-09-24T11:05:06.567Z,18.42
2017-09-24T11:07:34.344Z,17.85
2017-09-24T11:10:01.887Z,17.75
2017-09-24T11:12:29.383Z,17.73
2017-09-24T11:14:56.952Z,20.88
2017-09-24T11:17:24.467Z,19.10
2017-09-24T11:19:52.707Z,18.10
2017-09-24T11:22:20.196Z,19.15
2017-09-24T11:24:47.698Z,18.85
2017-09-24T11:27:15.166Z,18.62
2017-09-24T11:29:42.669Z,18.40
2017-09-24T11:32:10.150Z,17.60
2017-09-24T11:34:37.640Z,19.60
2017-09-24T11:37:05.151Z,19.85
2017-09-24T11:39:32.649Z,18.00
2017-09-24T11:42:00.201Z,17.58
2017-09-24T11:44:27.671Z,19.73
2017-09-24T11:46:55.126Z,19.50
2017-09-24T11:49:22.659Z,18.73
2017-09-24T11:51:50.913Z,20.70
2017-09-24T11:54:18.426Z,21.08
2017-09-24T11:56:45.936Z,20.35
2017-09-24T11:59:13.417Z,18.48
2017-09-24T12:01:41.695Z,18.17
2017-09-24T12:04:09.276Z,19.48
2017-09-24T12:06:36.731Z,18.37
2017-09-24T12:09:04.227Z,20.95
2017-09-24T12:11:31.727Z,20.42
2017-09-24T12:13:59.304Z,19.65
2017-09-24T12:16:26.810Z,18.85
2017-09-24T12:18:54.315Z,19.05
2017-09-24T12:21:21.780Z,22.87
2017-09-24T12:23:49.287Z,21.80
2017-09-24T12:26:16.789Z,19.25
2017-09-24T12:28:44.329Z,18.70
2017-09-24T12:31:11.806Z,21.37
2017-09-24T12:33:39.336Z,20.58
2017-09-24T12:36:07.645Z,19.80
2017-09-24T12:38:35.198Z,23.08
2017-09-24T12:41:02.830Z,23.80
2017-09-24T12:43:30.399Z,23.08
2017-09-24T12:45:58.017Z,23.52
2017-09-24T12:48:25.635Z,21.48
2017-09-24T12:50:53.277Z,23.80
2017-09-24T12:53:20.881Z,24.25
2017-09-24T12:55:48.534Z,24.37
2017-09-24T12:58:16.192Z,23.62
2017-09-24T13:00:43.767Z,22.35
2017-09-24T13:03:11.290Z,26.15
2017-09-24T13:05:38.863Z,27.15
2017-09-24T13:08:06.464Z,23.45
2017-09-24T13:10:33.978Z,25.70
2017-09-24T13:13:01.705Z,22.33
2017-09-24T13:15:29.738Z,24.15
2017-09-24T13:17:57.267Z,25.70
2017-09-24T13:20:24.758Z,26.33
2017-09-24T13:22:52.381Z,24.60
2017-09-24T13:25:19.950Z,25.85
2017-09-24T13:27:47.517Z,25.67
2017-09-24T13:30:15.166Z,25.73
2017-09-24T13:32:42.811Z,24.37
2017-09-24T13:35:10.500Z,23.95
2017-09-24T13:37:38.217Z,23.33
2017-09-24T13:40:05.823Z,25.90
2017-09-24T13:42:33.313Z,24.17
2017-09-24T13:45:00.820Z,22.77
2017-09-24T13:47:29.083Z,22.73
2017-09-24T13:49:57.367Z,21.93
2017-09-24T13:52:24.911Z,19.33
2017-09-24T13:54:52.382Z,24.37
2017-09-24T13:57:20.637Z,20.97
2017-09-24T13:59:48.121Z,22.97
2017-09-24T14:02:16.339Z,22.60
2017-09-24T14:04:43.837Z,20.57
2017-09-24T14:07:11.313Z,20.17
2017-09-24T14:09:39.602Z,23.00
2017-09-24T14:12:07.099Z,21.23
2017-09-24T14:14:34.588Z,21.83
2017-09-24T14:17:02.072Z,20.33
2017-09-24T14:19:29.543Z,22.50
2017-09-24T14:21:57.047Z,21.43
2017-09-24T14:24:24.527Z,20.80
2017-09-24T14:26:52.022Z,20.27
2017-09-24T14:29:19.514Z,20.17
2017-09-24T14:31:46.987Z,21.60
2017-09-24T14:34:14.552Z,21.60
2017-09-24T14:36:42.042Z,24.07
2017-09-24T14:39:09.529Z,22.90
2017-09-24T14:41:37.002Z,21.97
2017-09-24T14:44:04.482Z,23.30
2017-09-24T14:46:32.122Z,23.70
2017-09-24T14:48:59.651Z,24.83
2017-09-24T14:51:27.121Z,23.33
2017-09-24T14:53:54.596Z,24.63
2017-09-24T14:56:22.070Z,26.17
2017-09-24T14:58:50.319Z,22.47
2017-09-24T15:01:17.806Z,23.90
2017-09-24T15:03:46.097Z,26.90
2017-09-24T15:06:13.556Z,24.10
2017-09-24T15:08:41.022Z,24.57
2017-09-24T15:11:08.505Z,22.30
2017-09-24T15:13:36.140Z,24.03
2017-09-24T15:16:03.659Z,23.73
2017-09-24T15:18:31.181Z,22.08
2017-09-24T15:20:58.697Z,23.52
2017-09-24T15:23:26.155Z,25.43
2017-09-24T15:25:54.420Z,25.07
2017-09-24T15:28:21.897Z,23.83
2017-09-24T15:30:49.396Z,26.60
2017-09-24T15:33:16.906Z,24.07
2017-09-24T15:35:44.426Z,24.25
2017-09-24T15:38:11.928Z,24.57
2017-09-24T15:40:39.419Z,26.05
2017-09-24T15:43:07.082Z,25.70
2017-09-24T15:45:34.551Z,26.23
2017-09-24T15:48:02.063Z,27.10
2017-09-24T15:50:30.312Z,26.57
2017-09-24T15:52:57.804Z,25.47
2017-09-24T15:55:25.282Z,24.90
2017-09-24T15:57:52.751Z,24.97
2017-09-24T16:00:20.227Z,28.33
2017-09-24T16:02:47.690Z,29.23
2017-09-24T16:05:15.161Z,29.57
2017-09-24T16:07:43.406Z,29.27
2017-09-24T16:10:10.890Z,25.98
2017-09-24T16:12:38.372Z,33.50
2017-09-24T16:15:05.869Z,28.63
2017-09-24T16:17:33.381Z,29.10
2017-09-24T16:20:00.884Z,28.70
2017-09-24T16:22:28.355Z,29.42
2017-09-24T16:24:55.827Z,28.65
2017-09-24T16:27:23.298Z,27.37
2017-09-24T16:29:51.538Z,32.38
2017-09-24T16:32:19.020Z,31.70
2017-09-24T16:34:46.514Z,29.48
2017-09-24T16:37:13.982Z,30.45
2017-09-24T16:39:41.482Z,30.48
2017-09-24T16:42:08.973Z,28.52
2017-09-24T16:44:36.455Z,30.15
2017-09-24T16:47:03.922Z,27.55
2017-09-24T16:49:31.426Z,31.23
2017-09-24T16:51:59.677Z,33.10
2017-09-24T16:54:27.157Z,29.67
2017-09-24T16:56:54.643Z,28.75
2017-09-24T16:59:22.106Z,30.40
2017-09-24T17:01:49.608Z,29.83
2017-09-24T17:04:17.102Z,29.90
2017-09-24T17:06:45.366Z,31.08
2017-09-24T17:09:12.902Z,31.83
2017-09-24T17:11:40.410Z,32.05
2017-09-24T17:14:07.867Z,32.83
2017-09-24T17:16:35.481Z,34.15
2017-09-24T17:19:02.975Z,36.13
2017-09-24T17:21:30.446Z,31.70
2017-09-24T17:23:57.975Z,30.73
2017-09-24T17:26:25.464Z,33.28
2017-09-24T17:28:52.963Z,33.13
2017-09-24T17:31:20.446Z,31.25
2017-09-24T17:33:47.917Z,34.50
2017-09-24T17:36:15.458Z,37.40
2017-09-24T17:38:42.988Z,39.65
2017-09-24T17:41:10.487Z,37.38
2017-09-24T17:43:37.974Z,35.20
2017-09-24T17:46:05.503Z,37.28
2017-09-24T17:48:32.970Z,36.40
2017-09-24T17:51:00.716Z,37.95
2017-09-24T17:53:28.194Z,38.70
2017-09-24T17:55:55.746Z,37.92
2017-09-24T17:58:23.227Z,36.95
2017-09-24T18:00:50.766Z,39.00
2017-09-24T18:03:19.027Z,35.45
2017-09-24T18:05:46.495Z,45.90
2017-09-24T18:08:13.942Z,37.10
2017-09-24T18:10:42.233Z,39.42
2017-09-24T18:13:09.690Z,36.00
2017-09-24T18:15:37.164Z,35.67
2017-09-24T18:18:04.685Z,37.22
2017-09-24T18:20:32.165Z,37.13
2017-09-24T18:22:59.635Z,37.58
2017-09-24T18:25:28.850Z,40.80
2017-09-24T18:27:56.459Z,42.70
2017-09-24T18:30:24.026Z,40.28
2017-09-24T18:32:51.490Z,40.55
2017-09-24T18:35:19.745Z,38.00
2017-09-24T18:37:47.206Z,41.05
2017-09-24T18:40:14.660Z,41.03
2017-09-24T18:42:42.124Z,39.70
2017-09-24T18:45:09.602Z,40.75
2017-09-24T18:47:37.269Z,42.65
2017-09-24T18:50:04.985Z,38.28
2017-09-24T18:52:32.464Z,41.53
2017-09-24T18:54:59.922Z,40.58
2017-09-24T18:57:27.400Z,38.78
2017-09-24T19:00:01.622Z,43.97
2017-09-24T19:02:29.162Z,41.37
2017-09-24T19:04:56.706Z,42.58
2017-09-24T19:07:24.954Z,39.22
2017-09-24T19:09:52.443Z,40.60
2017-09-24T19:12:19.903Z,41.30
2017-09-24T19:14:47.661Z,39.97
2017-09-24T19:17:15.141Z,44.13
2017-09-24T19:19:43.385Z,40.83
2017-09-24T19:22:10.911Z,39.90
2017-09-24T19:24:38.545Z,40.30
2017-09-24T19:27:06.027Z,40.60
2017-09-24T19:29:33.550Z,39.90
2017-09-24T19:32:01.415Z,39.33
2017-09-24T19:34:28.935Z,39.08
2017-09-24T19:36:56.411Z,38.95
2017-09-24T19:39:23.902Z,36.63
2017-09-24T19:41:51.354Z,40.75
2017-09-24T19:44:19.027Z,37.28
2017-09-24T19:46:46.676Z,36.00
2017-09-24T19:49:14.406Z,38.88
2017-09-24T19:51:41.871Z,38.72
2017-09-24T19:54:09.317Z,37.80
2017-09-24T19:56:36.794Z,39.00
2017-09-24T19:59:04.246Z,37.38
2017-09-24T20:01:32.526Z,38.63
2017-09-24T20:04:00.787Z,39.63
2017-09-24T20:06:28.263Z,38.05
2017-09-24T20:08:55.768Z,39.03
2017-09-24T20:11:23.270Z,39.38
2017-09-24T20:13:51.518Z,45.15
2017-09-24T20:16:19.100Z,36.45
2017-09-24T20:18:47.651Z,42.30
2017-09-24T20:21:15.164Z,43.72
2017-09-24T20:23:42.683Z,42.88
2017-09-24T20:26:10.175Z,45.08
2017-09-24T20:28:37.643Z,41.33
2017-09-24T20:31:05.545Z,42.58
2017-09-24T20:33:33.108Z,38.40
2017-09-24T20:36:00.591Z,43.42
2017-09-24T20:38:28.538Z,38.53
2017-09-24T20:40:56.058Z,42.90
2017-09-24T20:43:23.511Z,40.75
2017-09-24T20:45:51.066Z,50.03
2017-09-24T20:48:18.518Z,41.42
2017-09-24T20:50:46.144Z,43.72
2017-09-24T20:53:13.607Z,43.70
2017-09-24T20:55:43.138Z,51.40
2017-09-24T20:58:10.602Z,45.05
2017-09-24T21:00:38.102Z,45.65
2017-09-24T21:03:07.754Z,48.08
2017-09-24T21:05:35.285Z,46.40
2017-09-24T21:08:02.766Z,39.67
2017-09-24T21:10:30.239Z,41.97
2017-09-24T21:12:57.738Z,40.53
2017-09-24T21:15:25.241Z,47.40
2017-09-24T21:17:58.662Z,43.30
2017-09-24T21:20:26.315Z,42.70
2017-09-24T21:22:53.854Z,43.72
2017-09-24T21:25:22.099Z,37.88
2017-09-24T21:27:49.583Z,38.75
2017-09-24T21:30:17.733Z,37.53
2017-09-24T21:32:45.218Z,36.40
2017-09-24T21:35:12.682Z,40.83
2017-09-24T21:37:40.207Z,39.75
2017-09-24T21:40:07.849Z,37.97
2017-09-24T21:42:35.612Z,45.72
2017-09-24T21:45:03.118Z,39.25
2017-09-24T21:47:30.619Z,41.72
2017-09-24T21:49:58.120Z,37.35
2017-09-24T21:52:25.601Z,37.85
2017-09-24T21:54:53.129Z,42.28
2017-09-24T21:57:20.600Z,36.72
2017-09-24T21:59:48.827Z,39.17
2017-09-24T22:02:16.546Z,40.22
2017-09-24T22:04:44.427Z,38.53
2017-09-24T22:07:11.878Z,44.03
2017-09-24T22:09:39.339Z,38.40
2017-09-24T22:12:06.812Z,37.20
2017-09-24T22:14:34.749Z,39.47
2017-09-24T22:17:02.223Z,40.58
2017-09-24T22:19:29.683Z,40.35
2017-09-24T22:21:57.127Z,42.58
2017-09-24T22:24:25.370Z,44.95
2017-09-24T22:26:52.978Z,46.00
2017-09-24T22:29:20.492Z,42.53
2017-09-24T22:31:47.979Z,38.17
2017-09-24T22:34:15.438Z,45.97
2017-09-24T22:36:42.902Z,44.25
2017-09-24T22:39:10.356Z,51.92
2017-09-24T22:41:37.818Z,43.55
2017-09-24T22:44:05.303Z,41.40
2017-09-24T22:46:32.794Z,47.60
2017-09-24T22:49:00.282Z,49.25
2017-09-24T22:51:27.791Z,67.65
2017-09-24T22:53:55.258Z,61.55
2017-09-24T22:56:22.746Z,63.38
2017-09-24T22:58:50.266Z,70.07
2017-09-24T23:01:17.736Z,92.22
2017-09-24T23:03:45.227Z,74.50
2017-09-24T23:06:12.691Z,74.82
2017-09-24T23:08:40.172Z,114.00
2017-09-24T23:11:07.647Z,89.50
2017-09-24T23:13:35.118Z,81.82
2017-09-24T23:16:02.591Z,93.68
2017-09-24T23:18:30.834Z,74.53
2017-09-24T23:20:58.319Z,77.70
2017-09-24T23:23:26.572Z,87.60
2017-09-24T23:25:54.032Z,86.97
2017-09-24T23:28:21.505Z,69.25
2017-09-24T23:30:48.962Z,77.90
2017-09-24T23:33:16.443Z,80.72
2017-09-24T23:35:43.915Z,98.60
2017-09-24T23:38:11.385Z,91.82
2017-09-24T23:40:38.847Z,88.35
2017-09-24T23:43:06.298Z,106.95
2017-09-24T23:45:33.757Z,77.55
2017-09-24T23:48:01.216Z,118.90
2017-09-24T23:50:28.664Z,97.40
2017-09-24T23:52:56.111Z,87.07
2017-09-24T23:55:23.575Z,92.75
2017-09-24T23:57:51.030Z,96.45
